Terminal Aerodrome Forecast
Issued by NWS Sioux Falls, SD

Home | Current Version | Previous Version | Graphics & Text | Print | Product List | Glossary On
Versions: 1 2 3 4 5 6 7 8 9 10 11 12
000
FTUS43 KFSD 181100
TAFSUX
TAF
KSUX 181132Z 1812/1912 13010KT P6SM BKN100
     FM181500 15013G19KT P6SM SCT110
     FM181900 16018G25KT P6SM FEW150
     FM190200 16016G22KT P6SM FEW050=

USA.gov is the U.S. government's official web portal to all federal, state and local government web resources and services.